sensor_id;sensor_type;location;lat;lon;timestamp;pressure;altitude;pressure_sealevel;temperature;humidity
10948;BME280;5526;42.070;24.752;2023-04-23T00:01:25;98995.03;;;13.84;100.00
10948;BME280;5526;42.070;24.752;2023-04-23T00:03:55;98997.25;;;13.72;100.00
10948;BME280;5526;42.070;24.752;2023-04-23T00:06:23;98987.22;;;13.64;100.00
10948;BME280;5526;42.070;24.752;2023-04-23T00:08:53;99001.19;;;13.74;100.00
10948;BME280;5526;42.070;24.752;2023-04-23T00:11:22;98989.25;;;13.77;100.00
10948;BME280;5526;42.070;24.752;2023-04-23T00:13:50;98992.75;;;13.72;100.00
10948;BME280;5526;42.070;24.752;2023-04-23T00:16:18;98994.34;;;13.68;100.00
10948;BME280;5526;42.070;24.752;2023-04-23T00:18:46;98990.19;;;13.57;100.00
10948;BME280;5526;42.070;24.752;2023-04-23T00:21:14;98993.09;;;13.56;100.00
10948;BME280;5526;42.070;24.752;2023-04-23T00:23:41;99002.09;;;13.55;100.00
10948;BME280;5526;42.070;24.752;2023-04-23T00:26:08;99000.22;;;13.60;100.00
10948;BME280;5526;42.070;24.752;2023-04-23T00:28:37;99002.88;;;13.55;100.00
10948;BME280;5526;42.070;24.752;2023-04-23T00:31:04;98999.69;;;13.58;100.00
10948;BME280;5526;42.070;24.752;2023-04-23T00:33:32;98997.84;;;13.54;100.00
10948;BME280;5526;42.070;24.752;2023-04-23T00:35:59;99003.97;;;13.49;100.00
10948;BME280;5526;42.070;24.752;2023-04-23T00:38:26;99000.56;;;13.44;100.00
10948;BME280;5526;42.070;24.752;2023-04-23T00:40:53;98993.97;;;13.36;100.00
10948;BME280;5526;42.070;24.752;2023-04-23T00:43:21;99006.94;;;13.33;100.00
10948;BME280;5526;42.070;24.752;2023-04-23T00:45:50;99005.41;;;13.22;100.00
10948;BME280;5526;42.070;24.752;2023-04-23T00:48:17;99004.31;;;13.23;100.00
10948;BME280;5526;42.070;24.752;2023-04-23T00:50:45;99009.38;;;13.19;100.00
10948;BME280;5526;42.070;24.752;2023-04-23T00:53:12;99014.13;;;13.22;100.00
10948;BME280;5526;42.070;24.752;2023-04-23T00:55:41;99010.16;;;13.15;100.00
10948;BME280;5526;42.070;24.752;2023-04-23T00:58:08;99008.38;;;13.05;100.00
10948;BME280;5526;42.070;24.752;2023-04-23T01:00:38;99006.00;;;13.04;100.00
10948;BME280;5526;42.070;24.752;2023-04-23T01:03:10;99006.78;;;13.04;100.00
10948;BME280;5526;42.070;24.752;2023-04-23T01:05:38;99005.72;;;13.05;100.00
10948;BME280;5526;42.070;24.752;2023-04-23T01:08:05;99012.59;;;12.91;100.00
10948;BME280;5526;42.070;24.752;2023-04-23T01:10:32;99002.84;;;12.71;100.00
10948;BME280;5526;42.070;24.752;2023-04-23T01:13:00;99008.66;;;12.63;100.00
10948;BME280;5526;42.070;24.752;2023-04-23T01:15:27;99007.34;;;12.56;100.00
10948;BME280;5526;42.070;24.752;2023-04-23T01:17:55;99002.06;;;12.46;100.00
10948;BME280;5526;42.070;24.752;2023-04-23T01:20:24;99004.75;;;12.31;100.00
10948;BME280;5526;42.070;24.752;2023-04-23T01:22:53;99008.97;;;12.32;100.00
10948;BME280;5526;42.070;24.752;2023-04-23T01:25:20;99004.97;;;12.24;100.00
10948;BME280;5526;42.070;24.752;2023-04-23T01:27:47;99010.00;;;12.16;100.00
10948;BME280;5526;42.070;24.752;2023-04-23T01:30:15;99010.25;;;12.19;100.00
10948;BME280;5526;42.070;24.752;2023-04-23T01:32:42;99003.13;;;12.15;100.00
10948;BME280;5526;42.070;24.752;2023-04-23T01:35:10;99001.56;;;12.14;100.00
10948;BME280;5526;42.070;24.752;2023-04-23T01:37:37;99005.78;;;12.10;100.00
10948;BME280;5526;42.070;24.752;2023-04-23T01:40:08;98994.97;;;12.06;100.00
10948;BME280;5526;42.070;24.752;2023-04-23T01:42:35;99010.00;;;12.16;100.00
10948;BME280;5526;42.070;24.752;2023-04-23T01:45:03;99010.00;;;12.21;100.00
10948;BME280;5526;42.070;24.752;2023-04-23T01:47:32;99006.56;;;12.20;100.00
10948;BME280;5526;42.070;24.752;2023-04-23T01:50:00;99004.72;;;12.26;100.00
10948;BME280;5526;42.070;24.752;2023-04-23T01:52:28;98999.72;;;12.29;100.00
10948;BME280;5526;42.070;24.752;2023-04-23T01:54:56;99006.84;;;12.34;100.00
10948;BME280;5526;42.070;24.752;2023-04-23T01:57:24;99011.06;;;12.40;100.00
10948;BME280;5526;42.070;24.752;2023-04-23T01:59:53;99008.16;;;12.41;100.00
10948;BME280;5526;42.070;24.752;2023-04-23T02:02:24;99004.72;;;12.46;100.00
10948;BME280;5526;42.070;24.752;2023-04-23T02:04:52;99008.69;;;12.48;100.00
10948;BME280;5526;42.070;24.752;2023-04-23T02:07:19;99012.38;;;12.47;100.00
10948;BME280;5526;42.070;24.752;2023-04-23T02:09:47;99003.94;;;12.45;100.00
10948;BME280;5526;42.070;24.752;2023-04-23T02:12:14;99004.72;;;12.46;100.00
10948;BME280;5526;42.070;24.752;2023-04-23T02:14:42;99005.50;;;12.51;100.00
10948;BME280;5526;42.070;24.752;2023-04-23T02:17:09;98998.66;;;12.50;100.00
10948;BME280;5526;42.070;24.752;2023-04-23T02:19:37;99000.50;;;12.55;100.00
10948;BME280;5526;42.070;24.752;2023-04-23T02:22:04;98995.22;;;12.60;100.00
10948;BME280;5526;42.070;24.752;2023-04-23T02:24:32;99002.88;;;12.61;100.00
10948;BME280;5526;42.070;24.752;2023-04-23T02:26:59;99005.50;;;12.66;100.00
10948;BME280;5526;42.070;24.752;2023-04-23T02:29:26;99005.22;;;12.73;100.00
10948;BME280;5526;42.070;24.752;2023-04-23T02:31:55;99008.91;;;12.77;100.00
10948;BME280;5526;42.070;24.752;2023-04-23T02:34:22;99003.63;;;12.82;100.00
10948;BME280;5526;42.070;24.752;2023-04-23T02:36:49;99017.88;;;12.81;100.00
10948;BME280;5526;42.070;24.752;2023-04-23T02:39:17;99015.53;;;12.19;100.00
10948;BME280;5526;42.070;24.752;2023-04-23T02:41:44;99017.88;;;11.86;100.00
10948;BME280;5526;42.070;24.752;2023-04-23T02:44:11;99023.34;;;11.64;100.00
10948;BME280;5526;42.070;24.752;2023-04-23T02:46:38;99014.09;;;11.57;100.00
10948;BME280;5526;42.070;24.752;2023-04-23T02:49:07;99005.16;;;11.63;100.00
10948;BME280;5526;42.070;24.752;2023-04-23T02:51:34;99022.03;;;11.72;100.00
10948;BME280;5526;42.070;24.752;2023-04-23T02:54:01;99017.59;;;11.82;100.00
10948;BME280;5526;42.070;24.752;2023-04-23T02:56:29;99016.28;;;11.80;100.00
10948;BME280;5526;42.070;24.752;2023-04-23T02:58:56;99015.50;;;11.84;100.00
10948;BME280;5526;42.070;24.752;2023-04-23T03:01:23;99019.97;;;11.79;100.00
10948;BME280;5526;42.070;24.752;2023-04-23T03:03:50;99023.13;;;11.86;100.00
10948;BME280;5526;42.070;24.752;2023-04-23T03:06:19;99020.00;;;11.89;100.00
10948;BME280;5526;42.070;24.752;2023-04-23T03:08:46;99011.28;;;11.88;100.00
10948;BME280;5526;42.070;24.752;2023-04-23T03:11:13;99023.19;;;11.96;100.00
10948;BME280;5526;42.070;24.752;2023-04-23T03:13:41;99023.44;;;12.04;100.00
10948;BME280;5526;42.070;24.752;2023-04-23T03:16:08;99026.88;;;12.05;100.00
10948;BME280;5526;42.070;24.752;2023-04-23T03:18:36;99025.81;;;12.11;100.00
10948;BME280;5526;42.070;24.752;2023-04-23T03:21:03;99027.94;;;12.14;100.00
10948;BME280;5526;42.070;24.752;2023-04-23T03:23:31;99033.50;;;12.17;100.00
10948;BME280;5526;42.070;24.752;2023-04-23T03:25:59;99033.50;;;12.17;100.00
10948;BME280;5526;42.070;24.752;2023-04-23T03:28:26;99032.16;;;12.15;100.00
10948;BME280;5526;42.070;24.752;2023-04-23T03:30:53;99046.94;;;12.21;100.00
10948;BME280;5526;42.070;24.752;2023-04-23T03:33:21;99040.88;;;12.25;100.00
10948;BME280;5526;42.070;24.752;2023-04-23T03:35:48;99041.16;;;12.24;100.00
10948;BME280;5526;42.070;24.752;2023-04-23T03:38:16;99048.00;;;12.25;100.00
10948;BME280;5526;42.070;24.752;2023-04-23T03:40:44;99054.59;;;12.27;100.00
10948;BME280;5526;42.070;24.752;2023-04-23T03:43:12;99046.69;;;12.17;100.00
10948;BME280;5526;42.070;24.752;2023-04-23T03:45:39;99055.38;;;12.18;100.00
10948;BME280;5526;42.070;24.752;2023-04-23T03:48:06;99061.19;;;12.30;100.00
10948;BME280;5526;42.070;24.752;2023-04-23T03:50:33;99060.44;;;12.44;100.00
10948;BME280;5526;42.070;24.752;2023-04-23T03:53:03;99049.06;;;12.44;100.00
10948;BME280;5526;42.070;24.752;2023-04-23T03:55:30;99062.50;;;12.32;100.00
10948;BME280;5526;42.070;24.752;2023-04-23T03:57:59;99059.63;;;12.19;100.00
10948;BME280;5526;42.070;24.752;2023-04-23T04:00:27;99058.56;;;12.25;100.00
10948;BME280;5526;42.070;24.752;2023-04-23T04:02:54;99064.09;;;12.28;100.00
10948;BME280;5526;42.070;24.752;2023-04-23T04:05:22;99074.94;;;12.27;100.00
10948;BME280;5526;42.070;24.752;2023-04-23T04:07:49;99074.13;;;12.36;100.00
10948;BME280;5526;42.070;24.752;2023-04-23T04:10:16;99073.63;;;12.44;100.00
10948;BME280;5526;42.070;24.752;2023-04-23T04:12:43;99078.63;;;12.36;100.00
10948;BME280;5526;42.070;24.752;2023-04-23T04:15:14;99080.22;;;12.47;100.00
10948;BME280;5526;42.070;24.752;2023-04-23T04:17:42;99082.34;;;12.60;100.00
10948;BME280;5526;42.070;24.752;2023-04-23T04:20:10;99084.97;;;12.75;100.00
10948;BME280;5526;42.070;24.752;2023-04-23T04:22:38;99084.44;;;12.83;100.00
10948;BME280;5526;42.070;24.752;2023-04-23T04:25:06;99088.13;;;12.87;100.00
10948;BME280;5526;42.070;24.752;2023-04-23T04:27:34;99088.16;;;12.82;100.00
10948;BME280;5526;42.070;24.752;2023-04-23T04:30:02;99090.50;;;12.93;100.00
10948;BME280;5526;42.070;24.752;2023-04-23T04:32:31;99101.09;;;12.98;100.00
10948;BME280;5526;42.070;24.752;2023-04-23T04:34:59;99099.50;;;12.92;100.00
10948;BME280;5526;42.070;24.752;2023-04-23T04:37:27;99107.16;;;13.19;100.00
10948;BME280;5526;42.070;24.752;2023-04-23T04:39:54;99096.53;;;13.39;100.00
10948;BME280;5526;42.070;24.752;2023-04-23T04:42:21;99102.06;;;13.48;100.00
10948;BME280;5526;42.070;24.752;2023-04-23T04:44:50;99101.31;;;13.37;100.00
10948;BME280;5526;42.070;24.752;2023-04-23T04:47:18;99104.22;;;13.26;100.00
10948;BME280;5526;42.070;24.752;2023-04-23T04:49:46;99112.38;;;13.49;100.00
10948;BME280;5526;42.070;24.752;2023-04-23T04:52:14;99105.00;;;13.31;100.00
10948;BME280;5526;42.070;24.752;2023-04-23T04:54:41;99110.03;;;13.33;100.00
10948;BME280;5526;42.070;24.752;2023-04-23T04:57:08;99118.97;;;13.52;100.00
10948;BME280;5526;42.070;24.752;2023-04-23T04:59:36;99122.44;;;13.37;100.00
10948;BME280;5526;42.070;24.752;2023-04-23T05:02:03;99118.09;;;13.71;100.00
10948;BME280;5526;42.070;24.752;2023-04-23T05:04:31;99120.78;;;13.61;100.00
10948;BME280;5526;42.070;24.752;2023-04-23T05:06:59;99119.50;;;13.49;100.00
10948;BME280;5526;42.070;24.752;2023-04-23T05:09:27;99123.25;;;13.23;100.00
10948;BME280;5526;42.070;24.752;2023-04-23T05:11:54;99133.06;;;13.02;100.00
10948;BME280;5526;42.070;24.752;2023-04-23T05:14:21;99127.22;;;12.85;100.00
10948;BME280;5526;42.070;24.752;2023-04-23T05:16:50;99131.44;;;12.96;100.00
10948;BME280;5526;42.070;24.752;2023-04-23T05:19:17;99127.25;;;13.10;100.00
10948;BME280;5526;42.070;24.752;2023-04-23T05:21:45;99131.19;;;12.82;100.00
10948;BME280;5526;42.070;24.752;2023-04-23T05:24:13;99133.03;;;12.77;100.00
10948;BME280;5526;42.070;24.752;2023-04-23T05:26:41;99129.59;;;12.71;100.00
10948;BME280;5526;42.070;24.752;2023-04-23T05:29:08;99142.00;;;12.96;100.00
10948;BME280;5526;42.070;24.752;2023-04-23T05:31:35;99142.53;;;12.83;100.00
10948;BME280;5526;42.070;24.752;2023-04-23T05:34:02;99133.56;;;12.89;100.00
10948;BME280;5526;42.070;24.752;2023-04-23T05:36:29;99137.81;;;12.90;100.00
10948;BME280;5526;42.070;24.752;2023-04-23T05:38:57;99140.16;;;12.71;100.00
10948;BME280;5526;42.070;24.752;2023-04-23T05:41:25;99131.44;;;12.96;100.00
10948;BME280;5526;42.070;24.752;2023-04-23T05:43:53;99140.97;;;13.07;100.00
10948;BME280;5526;42.070;24.752;2023-04-23T05:46:20;99141.22;;;13.36;100.00
10948;BME280;5526;42.070;24.752;2023-04-23T05:48:47;99150.75;;;13.32;100.00
10948;BME280;5526;42.070;24.752;2023-04-23T05:51:14;99142.81;;;13.17;100.00
10948;BME280;5526;42.070;24.752;2023-04-23T05:53:42;99145.97;;;13.19;100.00
10948;BME280;5526;42.070;24.752;2023-04-23T05:56:09;99152.34;;;13.28;100.00
10948;BME280;5526;42.070;24.752;2023-04-23T05:58:37;99151.53;;;13.27;100.00
10948;BME280;5526;42.070;24.752;2023-04-23T06:01:05;99153.91;;;13.34;100.00
10948;BME280;5526;42.070;24.752;2023-04-23T06:03:32;99152.06;;;13.29;100.00
10948;BME280;5526;42.070;24.752;2023-04-23T06:06:00;99154.16;;;13.32;100.00
10948;BME280;5526;42.070;24.752;2023-04-23T06:08:27;99163.41;;;13.45;100.00
10948;BME280;5526;42.070;24.752;2023-04-23T06:10:55;99166.31;;;13.43;100.00
10948;BME280;5526;42.070;24.752;2023-04-23T06:13:22;99158.06;;;13.65;100.00
10948;BME280;5526;42.070;24.752;2023-04-23T06:15:51;99156.47;;;13.69;100.00
10948;BME280;5526;42.070;24.752;2023-04-23T06:18:18;99164.59;;;13.92;100.00
10948;BME280;5526;42.070;24.752;2023-04-23T06:20:47;99163.31;;;13.80;100.00
10948;BME280;5526;42.070;24.752;2023-04-23T06:23:16;99159.84;;;13.89;100.00
10948;BME280;5526;42.070;24.752;2023-04-23T06:25:43;99162.44;;;14.04;100.00
10948;BME280;5526;42.070;24.752;2023-04-23T06:28:11;99170.31;;;14.14;100.00
10948;BME280;5526;42.070;24.752;2023-04-23T06:30:38;99165.34;;;14.03;100.00
10948;BME280;5526;42.070;24.752;2023-04-23T06:33:07;99159.72;;;14.14;100.00
10948;BME280;5526;42.070;24.752;2023-04-23T06:35:35;99173.06;;;14.48;99.34
10948;BME280;5526;42.070;24.752;2023-04-23T06:38:02;99164.91;;;14.44;99.41
10948;BME280;5526;42.070;24.752;2023-04-23T06:40:29;99169.16;;;14.40;98.89
10948;BME280;5526;42.070;24.752;2023-04-23T06:42:57;99171.72;;;14.55;98.05
10948;BME280;5526;42.070;24.752;2023-04-23T06:45:24;99166.66;;;14.59;98.05
10948;BME280;5526;42.070;24.752;2023-04-23T06:47:51;99171.91;;;14.69;97.32
10948;BME280;5526;42.070;24.752;2023-04-23T06:50:20;99166.09;;;14.62;97.60
10948;BME280;5526;42.070;24.752;2023-04-23T06:52:47;99168.28;;;14.93;96.50
10948;BME280;5526;42.070;24.752;2023-04-23T06:55:15;99164.44;;;15.09;94.45
10948;BME280;5526;42.070;24.752;2023-04-23T06:57:42;99171.56;;;15.42;92.29
10948;BME280;5526;42.070;24.752;2023-04-23T07:00:11;99174.16;;;15.99;90.27
10948;BME280;5526;42.070;24.752;2023-04-23T07:02:38;99163.56;;;16.36;85.72
10948;BME280;5526;42.070;24.752;2023-04-23T07:05:06;99169.63;;;16.42;86.67
10948;BME280;5526;42.070;24.752;2023-04-23T07:07:34;99173.81;;;16.66;83.21
10948;BME280;5526;42.070;24.752;2023-04-23T07:10:02;99167.25;;;16.77;84.18
10948;BME280;5526;42.070;24.752;2023-04-23T07:12:30;99166.06;;;17.02;82.28
10948;BME280;5526;42.070;24.752;2023-04-23T07:14:57;99174.47;;;17.09;81.72
10948;BME280;5526;42.070;24.752;2023-04-23T07:17:24;99170.34;;;16.47;84.76
10948;BME280;5526;42.070;24.752;2023-04-23T07:19:51;99177.25;;;17.18;80.89
10948;BME280;5526;42.070;24.752;2023-04-23T07:22:19;99176.25;;;17.14;79.95
10948;BME280;5526;42.070;24.752;2023-04-23T07:24:47;99173.41;;;16.91;79.62
10948;BME280;5526;42.070;24.752;2023-04-23T07:27:15;99168.94;;;17.06;80.08
10948;BME280;5526;42.070;24.752;2023-04-23T07:29:42;99180.19;;;17.16;78.31
10948;BME280;5526;42.070;24.752;2023-04-23T07:32:10;99166.25;;;17.38;77.46
10948;BME280;5526;42.070;24.752;2023-04-23T07:34:38;99161.19;;;17.55;76.09
10948;BME280;5526;42.070;24.752;2023-04-23T07:37:05;99172.16;;;17.53;75.60
10948;BME280;5526;42.070;24.752;2023-04-23T07:39:32;99169.47;;;17.94;74.00
10948;BME280;5526;42.070;24.752;2023-04-23T07:42:01;99168.25;;;18.54;70.94
10948;BME280;5526;42.070;24.752;2023-04-23T07:44:29;99167.41;;;18.67;69.51
10948;BME280;5526;42.070;24.752;2023-04-23T07:46:56;99170.41;;;18.52;70.70
10948;BME280;5526;42.070;24.752;2023-04-23T07:49:24;99163.13;;;18.44;69.86
10948;BME280;5526;42.070;24.752;2023-04-23T07:51:53;99138.97;;;18.27;69.82
10948;BME280;5526;42.070;24.752;2023-04-23T07:54:20;99160.00;;;18.28;69.98
10948;BME280;5526;42.070;24.752;2023-04-23T07:56:47;99150.94;;;18.16;69.77
10948;BME280;5526;42.070;24.752;2023-04-23T07:59:16;99154.66;;;18.42;70.13
10948;BME280;5526;42.070;24.752;2023-04-23T08:01:43;99159.44;;;18.89;68.38
10948;BME280;5526;42.070;24.752;2023-04-23T08:04:10;99157.63;;;18.27;69.67
10948;BME280;5526;42.070;24.752;2023-04-23T08:06:38;99158.63;;;18.66;67.81
10948;BME280;5526;42.070;24.752;2023-04-23T08:09:06;99162.94;;;18.98;67.51
10948;BME280;5526;42.070;24.752;2023-04-23T08:11:33;99157.56;;;19.33;65.04
10948;BME280;5526;42.070;24.752;2023-04-23T08:14:01;99154.09;;;19.33;64.81
10948;BME280;5526;42.070;24.752;2023-04-23T08:16:29;99152.97;;;19.34;64.30
10948;BME280;5526;42.070;24.752;2023-04-23T08:18:57;99154.56;;;19.74;63.66
10948;BME280;5526;42.070;24.752;2023-04-23T08:21:24;99149.38;;;19.69;63.63
10948;BME280;5526;42.070;24.752;2023-04-23T08:23:52;99145.41;;;19.58;63.70
10948;BME280;5526;42.070;24.752;2023-04-23T08:26:19;99141.56;;;19.72;62.48
10948;BME280;5526;42.070;24.752;2023-04-23T08:28:48;99148.16;;;19.83;61.29
10948;BME280;5526;42.070;24.752;2023-04-23T08:31:15;99145.69;;;19.87;60.52
10948;BME280;5526;42.070;24.752;2023-04-23T08:33:44;99143.84;;;19.57;61.14
10948;BME280;5526;42.070;24.752;2023-04-23T08:36:11;99144.09;;;19.77;61.56
10948;BME280;5526;42.070;24.752;2023-04-23T08:38:39;99146.00;;;19.85;61.58
10948;BME280;5526;42.070;24.752;2023-04-23T08:41:09;99135.59;;;18.48;64.30
10948;BME280;5526;42.070;24.752;2023-04-23T08:43:42;99139.47;;;19.08;63.55
10948;BME280;5526;42.070;24.752;2023-04-23T08:46:11;99133.09;;;19.18;62.20
10948;BME280;5526;42.070;24.752;2023-04-23T08:48:41;99135.75;;;19.18;61.98
10948;BME280;5526;42.070;24.752;2023-04-23T08:51:13;99134.16;;;19.78;59.02
10948;BME280;5526;42.070;24.752;2023-04-23T08:53:44;99123.84;;;19.46;58.06
10948;BME280;5526;42.070;24.752;2023-04-23T08:56:17;99127.75;;;19.79;58.25
10948;BME280;5526;42.070;24.752;2023-04-23T08:58:46;99114.75;;;20.03;56.93
10948;BME280;5526;42.070;24.752;2023-04-23T09:01:14;99116.06;;;20.82;56.68
10948;BME280;5526;42.070;24.752;2023-04-23T09:03:42;99118.03;;;21.36;52.17
10948;BME280;5526;42.070;24.752;2023-04-23T09:06:11;99112.75;;;20.76;52.46
10948;BME280;5526;42.070;24.752;2023-04-23T09:08:38;99107.41;;;20.68;53.21
10948;BME280;5526;42.070;24.752;2023-04-23T09:11:06;99118.44;;;20.49;54.04
10948;BME280;5526;42.070;24.752;2023-04-23T09:13:34;99111.81;;;20.81;52.86
10948;BME280;5526;42.070;24.752;2023-04-23T09:16:01;99110.25;;;20.97;51.64
10948;BME280;5526;42.070;24.752;2023-04-23T09:18:31;99103.22;;;21.30;52.17
10948;BME280;5526;42.070;24.752;2023-04-23T09:21:00;99098.97;;;21.38;50.58
10948;BME280;5526;42.070;24.752;2023-04-23T09:23:30;99106.69;;;21.68;50.16
10948;BME280;5526;42.070;24.752;2023-04-23T09:25:59;99107.00;;;21.75;48.78
10948;BME280;5526;42.070;24.752;2023-04-23T09:28:33;99086.72;;;21.28;48.25
10948;BME280;5526;42.070;24.752;2023-04-23T09:31:03;99100.50;;;20.84;50.12
10948;BME280;5526;42.070;24.752;2023-04-23T09:33:34;99093.91;;;20.30;49.53
10948;BME280;5526;42.070;24.752;2023-04-23T09:36:04;99092.53;;;19.68;50.79
10948;BME280;5526;42.070;24.752;2023-04-23T09:38:38;99084.31;;;19.56;52.82
10948;BME280;5526;42.070;24.752;2023-04-23T09:41:22;99087.94;;;20.16;49.01
10948;BME280;5526;42.070;24.752;2023-04-23T09:43:52;99086.97;;;20.55;49.53
10948;BME280;5526;42.070;24.752;2023-04-23T09:46:32;99072.81;;;20.71;49.45
10948;BME280;5526;42.070;24.752;2023-04-23T09:49:01;99068.00;;;21.20;49.12
10948;BME280;5526;42.070;24.752;2023-04-23T09:51:29;99074.66;;;21.05;48.14
10948;BME280;5526;42.070;24.752;2023-04-23T09:54:00;99074.03;;;21.00;47.35
10948;BME280;5526;42.070;24.752;2023-04-23T09:56:29;99065.91;;;20.11;48.47
10948;BME280;5526;42.070;24.752;2023-04-23T09:58:57;99063.25;;;20.28;49.24
10948;BME280;5526;42.070;24.752;2023-04-23T10:01:27;99059.88;;;20.99;47.61
10948;BME280;5526;42.070;24.752;2023-04-23T10:03:55;99064.47;;;21.36;46.32
10948;BME280;5526;42.070;24.752;2023-04-23T10:06:29;99061.41;;;21.46;43.21
10948;BME280;5526;42.070;24.752;2023-04-23T10:08:58;99056.56;;;21.02;44.97
10948;BME280;5526;42.070;24.752;2023-04-23T10:11:25;99049.56;;;21.18;45.76
10948;BME280;5526;42.070;24.752;2023-04-23T10:13:54;99049.53;;;20.63;46.16
10948;BME280;5526;42.070;24.752;2023-04-23T10:16:21;99049.03;;;20.96;45.89
10948;BME280;5526;42.070;24.752;2023-04-23T10:18:50;99046.16;;;21.38;45.25
10948;BME280;5526;42.070;24.752;2023-04-23T10:21:23;99046.94;;;21.47;44.63
10948;BME280;5526;42.070;24.752;2023-04-23T10:23:54;99041.22;;;21.86;43.93
10948;BME280;5526;42.070;24.752;2023-04-23T10:26:25;99039.72;;;22.18;43.61
10948;BME280;5526;42.070;24.752;2023-04-23T10:28:53;99036.47;;;21.92;44.18
10948;BME280;5526;42.070;24.752;2023-04-23T10:31:22;99027.44;;;22.17;43.71
10948;BME280;5526;42.070;24.752;2023-04-23T10:33:50;99024.53;;;22.22;44.33
10948;BME280;5526;42.070;24.752;2023-04-23T10:36:18;99022.84;;;22.17;43.57
10948;BME280;5526;42.070;24.752;2023-04-23T10:38:46;99022.63;;;22.43;42.20
10948;BME280;5526;42.070;24.752;2023-04-23T10:41:16;99027.69;;;22.24;43.24
10948;BME280;5526;42.070;24.752;2023-04-23T10:43:48;99007.97;;;22.73;43.04
10948;BME280;5526;42.070;24.752;2023-04-23T10:46:28;99004.66;;;23.00;43.14
10948;BME280;5526;42.070;24.752;2023-04-23T10:49:05;99011.78;;;22.72;42.04
10948;BME280;5526;42.070;24.752;2023-04-23T10:51:33;99000.25;;;22.71;43.24
10948;BME280;5526;42.070;24.752;2023-04-23T10:54:02;98993.50;;;22.86;42.22
10948;BME280;5526;42.070;24.752;2023-04-23T10:56:30;98999.50;;;22.83;42.30
10948;BME280;5526;42.070;24.752;2023-04-23T10:58:59;98996.63;;;22.55;41.74
10948;BME280;5526;42.070;24.752;2023-04-23T11:01:27;98996.75;;;21.85;42.04
10948;BME280;5526;42.070;24.752;2023-04-23T11:03:56;98987.53;;;21.95;42.35
10948;BME280;5526;42.070;24.752;2023-04-23T11:06:52;98983.50;;;21.89;40.95
10948;BME280;5526;42.070;24.752;2023-04-23T11:09:30;98993.75;;;22.28;39.38
10948;BME280;5526;42.070;24.752;2023-04-23T11:11:58;98982.91;;;22.36;41.28
10948;BME280;5526;42.070;24.752;2023-04-23T11:14:42;98968.38;;;22.58;39.04
10948;BME280;5526;42.070;24.752;2023-04-23T11:17:12;98966.41;;;22.91;38.69
10948;BME280;5526;42.070;24.752;2023-04-23T11:19:41;98964.53;;;22.91;39.36
10948;BME280;5526;42.070;24.752;2023-04-23T11:22:33;98964.53;;;23.03;39.73
10948;BME280;5526;42.070;24.752;2023-04-23T11:25:01;98967.06;;;22.76;41.10
10948;BME280;5526;42.070;24.752;2023-04-23T11:27:30;98971.59;;;22.51;40.55
10948;BME280;5526;42.070;24.752;2023-04-23T11:29:59;98970.84;;;22.51;40.40
10948;BME280;5526;42.070;24.752;2023-04-23T11:32:27;98966.38;;;22.55;39.68
10948;BME280;5526;42.070;24.752;2023-04-23T11:34:54;98965.69;;;22.25;40.55
10948;BME280;5526;42.070;24.752;2023-04-23T11:37:23;98965.13;;;22.52;40.06
10948;BME280;5526;42.070;24.752;2023-04-23T11:39:51;98957.47;;;23.11;40.16
10948;BME280;5526;42.070;24.752;2023-04-23T11:42:18;98959.03;;;23.60;39.72
10948;BME280;5526;42.070;24.752;2023-04-23T11:44:46;98953.28;;;23.61;38.95
10948;BME280;5526;42.070;24.752;2023-04-23T11:47:15;98964.00;;;22.53;39.21
10948;BME280;5526;42.070;24.752;2023-04-23T11:49:43;98950.25;;;22.22;38.77
10948;BME280;5526;42.070;24.752;2023-04-23T11:52:11;98944.91;;;22.55;39.16
10948;BME280;5526;42.070;24.752;2023-04-23T11:54:39;98941.94;;;22.92;39.38
10948;BME280;5526;42.070;24.752;2023-04-23T11:57:07;98933.88;;;22.68;39.93
10948;BME280;5526;42.070;24.752;2023-04-23T11:59:34;98937.66;;;22.67;38.75
10948;BME280;5526;42.070;24.752;2023-04-23T12:02:02;98929.28;;;23.41;37.75
10948;BME280;5526;42.070;24.752;2023-04-23T12:04:31;98928.50;;;23.04;37.99
10948;BME280;5526;42.070;24.752;2023-04-23T12:06:59;98918.66;;;22.72;37.61
10948;BME280;5526;42.070;24.752;2023-04-23T12:09:27;98927.81;;;22.83;39.00
10948;BME280;5526;42.070;24.752;2023-04-23T12:11:55;98912.19;;;23.21;38.06
10948;BME280;5526;42.070;24.752;2023-04-23T12:14:28;98912.34;;;23.52;37.00
10948;BME280;5526;42.070;24.752;2023-04-23T12:16:56;98915.03;;;23.52;37.52
10948;BME280;5526;42.070;24.752;2023-04-23T12:19:26;98903.19;;;23.41;37.34
10948;BME280;5526;42.070;24.752;2023-04-23T12:21:57;98904.75;;;23.54;37.18
10948;BME280;5526;42.070;24.752;2023-04-23T12:24:26;98895.56;;;23.83;36.59
10948;BME280;5526;42.070;24.752;2023-04-23T12:26:55;98885.09;;;23.02;37.56
10948;BME280;5526;42.070;24.752;2023-04-23T12:29:23;98892.25;;;23.10;36.60
10948;BME280;5526;42.070;24.752;2023-04-23T12:31:52;98880.28;;;23.32;36.67
10948;BME280;5526;42.070;24.752;2023-04-23T12:34:20;98880.09;;;23.25;36.68
10948;BME280;5526;42.070;24.752;2023-04-23T12:36:50;98876.59;;;23.12;37.13
10948;BME280;5526;42.070;24.752;2023-04-23T12:39:24;98873.25;;;23.27;36.01
10948;BME280;5526;42.070;24.752;2023-04-23T12:41:53;98878.75;;;23.58;36.44
10948;BME280;5526;42.070;24.752;2023-04-23T12:44:21;98866.06;;;23.98;35.80
10948;BME280;5526;42.070;24.752;2023-04-23T12:46:52;98871.31;;;24.22;35.74
10948;BME280;5526;42.070;24.752;2023-04-23T12:49:20;98862.75;;;24.32;34.79
10948;BME280;5526;42.070;24.752;2023-04-23T12:51:47;98867.16;;;24.09;35.40
10948;BME280;5526;42.070;24.752;2023-04-23T12:54:15;98862.13;;;24.23;35.63
10948;BME280;5526;42.070;24.752;2023-04-23T12:56:44;98854.75;;;24.36;34.81
10948;BME280;5526;42.070;24.752;2023-04-23T12:59:11;98852.41;;;24.19;34.41
10948;BME280;5526;42.070;24.752;2023-04-23T13:01:38;98860.72;;;23.86;35.56